Elliston, Virginia
Current Conditions -  °F | °C
As of 10:55 AM on Sunday 21 Dec 2014 (Local Time) from KBCB Reporting Station
Overcast Overcast  
Wind Chill: 38°   Ceiling: 2800
Heat Index: 38°   Visibility: 10mi
Dew Point: 29°   Wind: 0mph
Humidity: 71%   Direction: NA
Pressure: 30.28"   Gusts: NA
Location:  37.22°N, 80.23°W
Report Text: KBCB 211555Z AUTO 00000KT 10SM OVC028 03/M02 A3028 RMK AO2 T00321017
Loading
Personal Weather Stations






























Interactive Weather Map New forecast layout! Learn more

10-Day Weather Forecast

Advertisements
Track Severe Weather on mobile